DE-0278 weather

Aventoft Airfield
Nieb├╝ll, Schleswig-Holstein, Germany

Public forecast

Using degrees Celsius for public forecast. Weather courtesy of forecast.io.

METAR (pilot weather report)

Closest report is Westerland Sylt Airport, 16.6 nm (30.8 km) W. Retrieved 2019/08/23 10:20 UTC (7 minutes ago):

EDXW 231020Z 24013KT 9999 FEW012 21/19 Q1025

TAF (pilot weather forecast)

Closest forecast is Skrydstrup Air Base, 24.8 nm (46.0 km) NE. Retrieved 2019/08/23 09:35 UTC (52 minutes ago):

TAF EKSP 230803Z 2309/2409 24008KT 9999 FEW030 SCT200 TEMPO 2309/2315 25012G22KT TEMPO 2321/2324 1200 BCFG BECMG 2400/2402 VRB03KT 0100 FG VV001 TEMPO 2402/2406 1800 BR BKN003 BECMG 2406/2408 9999 NSW SCT030